sensor_id;sensor_type;location;lat;lon;timestamp;pressure;altitude;pressure_sealevel;temperature;humidity
84809;BME280;75044;53.126;18.008;2024-01-15T00:00:19;98797.79;;;1.89;78.53
84809;BME280;75044;53.126;18.008;2024-01-15T00:01:43;98795.41;;;1.88;78.64
84809;BME280;75044;53.126;18.008;2024-01-15T00:02:47;98791.73;;;1.86;78.74
84809;BME280;75044;53.126;18.008;2024-01-15T00:03:50;98792.13;;;1.82;78.93
84809;BME280;75044;53.126;18.008;2024-01-15T00:04:54;98787.86;;;1.81;78.74
84809;BME280;75044;53.126;18.008;2024-01-15T00:05:59;98782.89;;;1.74;78.71
84809;BME280;75044;53.126;18.008;2024-01-15T00:07:04;98785.44;;;1.75;78.97
84809;BME280;75044;53.126;18.008;2024-01-15T00:08:07;98780.76;;;1.72;79.05
84809;BME280;75044;53.126;18.008;2024-01-15T00:09:10;98782.42;;;1.70;78.98
84809;BME280;75044;53.126;18.008;2024-01-15T00:10:13;98780.79;;;1.72;79.14
84809;BME280;75044;53.126;18.008;2024-01-15T00:11:17;98773.02;;;1.72;79.21
84809;BME280;75044;53.126;18.008;2024-01-15T00:12:20;98772.78;;;1.73;79.09
84809;BME280;75044;53.126;18.008;2024-01-15T00:13:23;98771.70;;;1.74;79.11
84809;BME280;75044;53.126;18.008;2024-01-15T00:14:26;98770.43;;;1.76;78.99
84809;BME280;75044;53.126;18.008;2024-01-15T00:15:29;98771.94;;;1.77;79.15
84809;BME280;75044;53.126;18.008;2024-01-15T00:16:33;98771.70;;;1.78;78.94
84809;BME280;75044;53.126;18.008;2024-01-15T00:17:36;98768.22;;;1.79;79.05
84809;BME280;75044;53.126;18.008;2024-01-15T00:18:39;98768.46;;;1.77;79.35
84809;BME280;75044;53.126;18.008;2024-01-15T00:19:42;98765.92;;;1.77;79.01
84809;BME280;75044;53.126;18.008;2024-01-15T00:20:45;98763.17;;;1.77;79.27
84809;BME280;75044;53.126;18.008;2024-01-15T00:21:48;98762.49;;;1.76;78.93
84809;BME280;75044;53.126;18.008;2024-01-15T00:22:51;98760.02;;;1.77;78.89
84809;BME280;75044;53.126;18.008;2024-01-15T00:23:55;98757.34;;;1.79;78.92
84809;BME280;75044;53.126;18.008;2024-01-15T00:24:58;98758.41;;;1.82;79.01
84809;BME280;75044;53.126;18.008;2024-01-15T00:26:01;98755.63;;;1.83;79.09
84809;BME280;75044;53.126;18.008;2024-01-15T00:27:04;98754.41;;;1.83;79.14
84809;BME280;75044;53.126;18.008;2024-01-15T00:28:07;98745.98;;;1.83;78.80
84809;BME280;75044;53.126;18.008;2024-01-15T00:29:10;98746.48;;;1.80;78.97
84809;BME280;75044;53.126;18.008;2024-01-15T00:30:14;98740.64;;;1.79;78.90
84809;BME280;75044;53.126;18.008;2024-01-15T00:31:17;98742.17;;;1.80;79.03
84809;BME280;75044;53.126;18.008;2024-01-15T00:32:21;98734.73;;;1.81;78.99
84809;BME280;75044;53.126;18.008;2024-01-15T00:33:24;98734.46;;;1.83;79.24
84809;BME280;75044;53.126;18.008;2024-01-15T00:34:27;98729.77;;;1.83;79.06
84809;BME280;75044;53.126;18.008;2024-01-15T00:35:30;98731.11;;;1.84;79.05
84809;BME280;75044;53.126;18.008;2024-01-15T00:36:33;98725.39;;;1.85;79.10
84809;BME280;75044;53.126;18.008;2024-01-15T00:37:36;98724.27;;;1.83;78.96
84809;BME280;75044;53.126;18.008;2024-01-15T00:38:39;98722.21;;;1.86;78.90
84809;BME280;75044;53.126;18.008;2024-01-15T00:39:45;98722.77;;;1.86;79.19
84809;BME280;75044;53.126;18.008;2024-01-15T00:40:48;98719.03;;;1.85;79.05
84809;BME280;75044;53.126;18.008;2024-01-15T00:41:51;98720.80;;;1.84;79.28
84809;BME280;75044;53.126;18.008;2024-01-15T00:42:54;98721.40;;;1.82;79.18
84809;BME280;75044;53.126;18.008;2024-01-15T00:43:57;98715.95;;;1.81;79.08
84809;BME280;75044;53.126;18.008;2024-01-15T00:45:01;98713.38;;;1.81;79.17
84809;BME280;75044;53.126;18.008;2024-01-15T00:46:04;98714.54;;;1.79;78.86
84809;BME280;75044;53.126;18.008;2024-01-15T00:47:07;98715.94;;;1.78;78.88
84809;BME280;75044;53.126;18.008;2024-01-15T00:48:11;98712.69;;;1.78;78.93
84809;BME280;75044;53.126;18.008;2024-01-15T00:49:14;98710.25;;;1.78;78.98
84809;BME280;75044;53.126;18.008;2024-01-15T00:50:17;98711.55;;;1.80;78.76
84809;BME280;75044;53.126;18.008;2024-01-15T00:51:21;98706.69;;;1.81;78.90
84809;BME280;75044;53.126;18.008;2024-01-15T00:52:24;98705.12;;;1.81;78.89
84809;BME280;75044;53.126;18.008;2024-01-15T00:53:27;98704.76;;;1.81;78.83
84809;BME280;75044;53.126;18.008;2024-01-15T00:54:30;98700.43;;;1.82;78.57
84809;BME280;75044;53.126;18.008;2024-01-15T00:55:33;98696.33;;;1.81;78.94
84809;BME280;75044;53.126;18.008;2024-01-15T00:56:37;98691.33;;;1.81;78.83
84809;BME280;75044;53.126;18.008;2024-01-15T00:57:40;98689.67;;;1.81;78.90
84809;BME280;75044;53.126;18.008;2024-01-15T00:58:43;98689.33;;;1.80;78.78
84809;BME280;75044;53.126;18.008;2024-01-15T00:59:46;98682.59;;;1.81;78.85
84809;BME280;75044;53.126;18.008;2024-01-15T01:00:50;98685.98;;;1.81;78.94
84809;BME280;75044;53.126;18.008;2024-01-15T01:01:53;98680.52;;;1.81;78.84
84809;BME280;75044;53.126;18.008;2024-01-15T01:02:56;98680.36;;;1.81;78.84
84809;BME280;75044;53.126;18.008;2024-01-15T01:03:59;98680.36;;;1.81;79.05
84809;BME280;75044;53.126;18.008;2024-01-15T01:05:03;98678.46;;;1.81;78.73
84809;BME280;75044;53.126;18.008;2024-01-15T01:06:06;98682.35;;;1.79;79.13
84809;BME280;75044;53.126;18.008;2024-01-15T01:07:09;98676.73;;;1.78;79.02
84809;BME280;75044;53.126;18.008;2024-01-15T01:08:12;98675.60;;;1.76;79.09
84809;BME280;75044;53.126;18.008;2024-01-15T01:09:15;98671.79;;;1.77;79.12
84809;BME280;75044;53.126;18.008;2024-01-15T01:10:19;98667.90;;;1.75;79.14
84809;BME280;75044;53.126;18.008;2024-01-15T01:11:22;98667.11;;;1.74;79.09
84809;BME280;75044;53.126;18.008;2024-01-15T01:12:25;98661.58;;;1.74;79.03
84809;BME280;75044;53.126;18.008;2024-01-15T01:13:29;98657.18;;;1.77;79.13
84809;BME280;75044;53.126;18.008;2024-01-15T01:14:32;98656.08;;;1.78;79.21
84809;BME280;75044;53.126;18.008;2024-01-15T01:15:35;98654.39;;;1.77;79.13
84809;BME280;75044;53.126;18.008;2024-01-15T01:16:41;98650.50;;;1.76;79.32
84809;BME280;75044;53.126;18.008;2024-01-15T01:17:44;98651.15;;;1.73;79.26
84809;BME280;75044;53.126;18.008;2024-01-15T01:18:47;98647.32;;;1.74;79.14
84809;BME280;75044;53.126;18.008;2024-01-15T01:19:50;98648.33;;;1.74;79.07
84809;BME280;75044;53.126;18.008;2024-01-15T01:20:53;98647.05;;;1.76;79.23
84809;BME280;75044;53.126;18.008;2024-01-15T01:21:58;98648.79;;;1.76;79.18
84809;BME280;75044;53.126;18.008;2024-01-15T01:23:01;98650.08;;;1.74;79.34
84809;BME280;75044;53.126;18.008;2024-01-15T01:24:04;98650.44;;;1.73;79.35
84809;BME280;75044;53.126;18.008;2024-01-15T01:25:08;98650.29;;;1.74;79.20
84809;BME280;75044;53.126;18.008;2024-01-15T01:26:15;98648.80;;;1.72;79.20
84809;BME280;75044;53.126;18.008;2024-01-15T01:27:19;98648.48;;;1.72;79.51
84809;BME280;75044;53.126;18.008;2024-01-15T01:28:22;98643.39;;;1.70;79.48
84809;BME280;75044;53.126;18.008;2024-01-15T01:29:25;98642.52;;;1.71;79.58
84809;BME280;75044;53.126;18.008;2024-01-15T01:30:29;98638.71;;;1.71;79.34
84809;BME280;75044;53.126;18.008;2024-01-15T01:31:32;98640.69;;;1.73;79.36
84809;BME280;75044;53.126;18.008;2024-01-15T01:32:36;98638.77;;;1.73;79.11
84809;BME280;75044;53.126;18.008;2024-01-15T01:33:39;98637.00;;;1.74;79.18
84809;BME280;75044;53.126;18.008;2024-01-15T01:34:45;98636.30;;;1.74;79.09
84809;BME280;75044;53.126;18.008;2024-01-15T01:35:49;98638.34;;;1.75;79.01
84809;BME280;75044;53.126;18.008;2024-01-15T01:36:52;98631.77;;;1.75;79.19
84809;BME280;75044;53.126;18.008;2024-01-15T01:37:55;98634.88;;;1.75;79.51
84809;BME280;75044;53.126;18.008;2024-01-15T01:38:58;98632.44;;;1.76;78.99
84809;BME280;75044;53.126;18.008;2024-01-15T01:40:02;98632.86;;;1.78;79.02
84809;BME280;75044;53.126;18.008;2024-01-15T01:41:05;98634.02;;;1.79;79.00
84809;BME280;75044;53.126;18.008;2024-01-15T01:42:09;98629.48;;;1.80;78.85
84809;BME280;75044;53.126;18.008;2024-01-15T01:43:13;98627.29;;;1.79;78.83
84809;BME280;75044;53.126;18.008;2024-01-15T01:44:22;98625.82;;;1.77;79.02
84809;BME280;75044;53.126;18.008;2024-01-15T01:45:25;98625.30;;;1.77;79.01
84809;BME280;75044;53.126;18.008;2024-01-15T01:46:29;98620.40;;;1.79;79.13
84809;BME280;75044;53.126;18.008;2024-01-15T01:47:32;98619.33;;;1.80;79.01
84809;BME280;75044;53.126;18.008;2024-01-15T01:48:36;98619.88;;;1.79;78.84
84809;BME280;75044;53.126;18.008;2024-01-15T01:49:39;98613.90;;;1.78;78.90
84809;BME280;75044;53.126;18.008;2024-01-15T01:50:43;98610.40;;;1.79;78.64
84809;BME280;75044;53.126;18.008;2024-01-15T01:51:47;98606.45;;;1.82;78.78
84809;BME280;75044;53.126;18.008;2024-01-15T01:52:50;98605.54;;;1.83;78.91
84809;BME280;75044;53.126;18.008;2024-01-15T01:53:54;98601.05;;;1.83;78.70
84809;BME280;75044;53.126;18.008;2024-01-15T01:54:59;98600.95;;;1.82;78.88
84809;BME280;75044;53.126;18.008;2024-01-15T01:56:03;98600.45;;;1.82;78.86
84809;BME280;75044;53.126;18.008;2024-01-15T01:57:07;98599.27;;;1.81;78.99
84809;BME280;75044;53.126;18.008;2024-01-15T01:58:10;98597.17;;;1.79;79.08
84809;BME280;75044;53.126;18.008;2024-01-15T01:59:13;98594.83;;;1.78;79.08
84809;BME280;75044;53.126;18.008;2024-01-15T02:00:17;98592.59;;;1.78;79.06
84809;BME280;75044;53.126;18.008;2024-01-15T02:01:20;98589.34;;;1.78;79.07
84809;BME280;75044;53.126;18.008;2024-01-15T02:02:24;98592.08;;;1.78;79.25
84809;BME280;75044;53.126;18.008;2024-01-15T02:03:29;98589.02;;;1.77;79.14
84809;BME280;75044;53.126;18.008;2024-01-15T02:04:33;98583.07;;;1.76;79.38
84809;BME280;75044;53.126;18.008;2024-01-15T02:05:37;98584.36;;;1.74;79.38
84809;BME280;75044;53.126;18.008;2024-01-15T02:06:41;98580.44;;;1.73;79.20
84809;BME280;75044;53.126;18.008;2024-01-15T02:07:45;98574.58;;;1.74;79.02
84809;BME280;75044;53.126;18.008;2024-01-15T02:08:48;98575.80;;;1.73;79.24
84809;BME280;75044;53.126;18.008;2024-01-15T02:09:51;98572.44;;;1.72;79.38
84809;BME280;75044;53.126;18.008;2024-01-15T02:10:54;98571.36;;;1.70;79.40
84809;BME280;75044;53.126;18.008;2024-01-15T02:11:57;98570.77;;;1.68;79.22
84809;BME280;75044;53.126;18.008;2024-01-15T02:13:01;98568.74;;;1.67;79.44
84809;BME280;75044;53.126;18.008;2024-01-15T02:14:04;98569.08;;;1.68;79.26
84809;BME280;75044;53.126;18.008;2024-01-15T02:15:07;98563.60;;;1.67;79.22
84809;BME280;75044;53.126;18.008;2024-01-15T02:16:10;98565.60;;;1.68;79.09
84809;BME280;75044;53.126;18.008;2024-01-15T02:17:13;98564.29;;;1.70;78.96
84809;BME280;75044;53.126;18.008;2024-01-15T02:18:17;98561.79;;;1.69;79.19
84809;BME280;75044;53.126;18.008;2024-01-15T02:19:20;98557.79;;;1.69;79.13
84809;BME280;75044;53.126;18.008;2024-01-15T02:20:24;98556.48;;;1.71;79.14
84809;BME280;75044;53.126;18.008;2024-01-15T02:21:28;98556.36;;;1.73;79.27
84809;BME280;75044;53.126;18.008;2024-01-15T02:22:31;98555.44;;;1.74;79.12
84809;BME280;75044;53.126;18.008;2024-01-15T02:23:35;98555.79;;;1.74;79.06
84809;BME280;75044;53.126;18.008;2024-01-15T02:24:39;98551.33;;;1.74;79.05
84809;BME280;75044;53.126;18.008;2024-01-15T02:25:44;98555.88;;;1.73;78.98
84809;BME280;75044;53.126;18.008;2024-01-15T02:26:49;98550.54;;;1.70;78.79
84809;BME280;75044;53.126;18.008;2024-01-15T02:27:52;98552.25;;;1.70;79.11
84809;BME280;75044;53.126;18.008;2024-01-15T02:28:56;98547.14;;;1.72;78.61
84809;BME280;75044;53.126;18.008;2024-01-15T02:30:00;98547.93;;;1.73;78.53
84809;BME280;75044;53.126;18.008;2024-01-15T02:31:03;98547.51;;;1.75;78.75
84809;BME280;75044;53.126;18.008;2024-01-15T02:32:08;98546.00;;;1.74;78.65
84809;BME280;75044;53.126;18.008;2024-01-15T02:33:12;98543.17;;;1.75;78.76
84809;BME280;75044;53.126;18.008;2024-01-15T02:34:15;98542.42;;;1.77;78.72
84809;BME280;75044;53.126;18.008;2024-01-15T02:35:18;98542.45;;;1.76;78.76
84809;BME280;75044;53.126;18.008;2024-01-15T02:36:21;98543.95;;;1.74;78.73
84809;BME280;75044;53.126;18.008;2024-01-15T02:37:25;98538.23;;;1.71;78.64
84809;BME280;75044;53.126;18.008;2024-01-15T02:38:29;98540.61;;;1.69;78.73
84809;BME280;75044;53.126;18.008;2024-01-15T02:39:32;98534.36;;;1.67;78.79
84809;BME280;75044;53.126;18.008;2024-01-15T02:40:38;98541.77;;;1.67;78.79
84809;BME280;75044;53.126;18.008;2024-01-15T02:41:41;98538.60;;;1.68;78.88
84809;BME280;75044;53.126;18.008;2024-01-15T02:42:44;98534.41;;;1.69;78.74
84809;BME280;75044;53.126;18.008;2024-01-15T02:43:47;98536.13;;;1.69;78.60
84809;BME280;75044;53.126;18.008;2024-01-15T02:44:51;98528.00;;;1.70;78.54
84809;BME280;75044;53.126;18.008;2024-01-15T02:45:54;98525.83;;;1.72;78.63
84809;BME280;75044;53.126;18.008;2024-01-15T02:46:57;98528.95;;;1.74;78.47
84809;BME280;75044;53.126;18.008;2024-01-15T02:48:00;98528.60;;;1.74;78.61
84809;BME280;75044;53.126;18.008;2024-01-15T02:49:05;98525.64;;;1.75;78.60
84809;BME280;75044;53.126;18.008;2024-01-15T02:50:09;98518.38;;;1.73;78.40
84809;BME280;75044;53.126;18.008;2024-01-15T02:51:13;98520.67;;;1.75;78.39
84809;BME280;75044;53.126;18.008;2024-01-15T02:52:16;98524.09;;;1.75;78.42
84809;BME280;75044;53.126;18.008;2024-01-15T02:53:19;98517.75;;;1.74;78.46
84809;BME280;75044;53.126;18.008;2024-01-15T02:54:22;98515.19;;;1.74;78.61
84809;BME280;75044;53.126;18.008;2024-01-15T02:55:26;98507.55;;;1.75;78.56
84809;BME280;75044;53.126;18.008;2024-01-15T02:56:29;98505.15;;;1.75;78.47
84809;BME280;75044;53.126;18.008;2024-01-15T02:57:32;98507.79;;;1.74;78.47
84809;BME280;75044;53.126;18.008;2024-01-15T02:58:35;98504.56;;;1.73;78.45
84809;BME280;75044;53.126;18.008;2024-01-15T02:59:38;98502.41;;;1.72;78.51
84809;BME280;75044;53.126;18.008;2024-01-15T03:00:41;98499.63;;;1.70;78.54
84809;BME280;75044;53.126;18.008;2024-01-15T03:01:45;98504.13;;;1.72;78.41
84809;BME280;75044;53.126;18.008;2024-01-15T03:02:50;98497.38;;;1.73;78.51
84809;BME280;75044;53.126;18.008;2024-01-15T03:03:54;98494.77;;;1.73;78.69
84809;BME280;75044;53.126;18.008;2024-01-15T03:04:58;98501.66;;;1.70;78.56
84809;BME280;75044;53.126;18.008;2024-01-15T03:06:01;98492.00;;;1.71;78.53
84809;BME280;75044;53.126;18.008;2024-01-15T03:07:05;98492.60;;;1.69;78.47
84809;BME280;75044;53.126;18.008;2024-01-15T03:08:12;98489.14;;;1.69;78.69
84809;BME280;75044;53.126;18.008;2024-01-15T03:09:16;98495.66;;;1.70;78.57
84809;BME280;75044;53.126;18.008;2024-01-15T03:10:19;98490.66;;;1.70;78.80
84809;BME280;75044;53.126;18.008;2024-01-15T03:11:22;98490.04;;;1.72;78.71
84809;BME280;75044;53.126;18.008;2024-01-15T03:12:26;98489.45;;;1.73;78.70
84809;BME280;75044;53.126;18.008;2024-01-15T03:13:29;98490.27;;;1.71;78.39
84809;BME280;75044;53.126;18.008;2024-01-15T03:14:32;98485.73;;;1.69;78.62
84809;BME280;75044;53.126;18.008;2024-01-15T03:15:35;98482.83;;;1.69;78.39
84809;BME280;75044;53.126;18.008;2024-01-15T03:16:38;98478.60;;;1.67;78.62
84809;BME280;75044;53.126;18.008;2024-01-15T03:17:42;98482.45;;;1.66;78.54
84809;BME280;75044;53.126;18.008;2024-01-15T03:18:48;98475.52;;;1.64;78.66
84809;BME280;75044;53.126;18.008;2024-01-15T03:19:51;98477.11;;;1.63;78.74
84809;BME280;75044;53.126;18.008;2024-01-15T03:20:54;98473.09;;;1.61;78.92
84809;BME280;75044;53.126;18.008;2024-01-15T03:21:57;98468.21;;;1.59;78.99
84809;BME280;75044;53.126;18.008;2024-01-15T03:23:00;98467.80;;;1.58;79.18
84809;BME280;75044;53.126;18.008;2024-01-15T03:24:04;98464.30;;;1.56;79.26
84809;BME280;75044;53.126;18.008;2024-01-15T03:25:07;98462.03;;;1.53;79.39
84809;BME280;75044;53.126;18.008;2024-01-15T03:26:10;98459.55;;;1.52;79.19
84809;BME280;75044;53.126;18.008;2024-01-15T03:27:13;98456.19;;;1.47;79.33
84809;BME280;75044;53.126;18.008;2024-01-15T03:28:17;98456.80;;;1.46;79.48
84809;BME280;75044;53.126;18.008;2024-01-15T03:29:23;98455.67;;;1.44;79.60
84809;BME280;75044;53.126;18.008;2024-01-15T03:30:26;98459.36;;;1.43;79.49
84809;BME280;75044;53.126;18.008;2024-01-15T03:31:29;98459.83;;;1.41;79.81
84809;BME280;75044;53.126;18.008;2024-01-15T03:32:32;98453.20;;;1.39;79.97
84809;BME280;75044;53.126;18.008;2024-01-15T03:33:35;98456.11;;;1.37;79.78
84809;BME280;75044;53.126;18.008;2024-01-15T03:34:39;98454.67;;;1.35;79.65
84809;BME280;75044;53.126;18.008;2024-01-15T03:35:42;98446.39;;;1.29;79.93
84809;BME280;75044;53.126;18.008;2024-01-15T03:36:45;98454.23;;;1.31;80.39
84809;BME280;75044;53.126;18.008;2024-01-15T03:37:48;98453.23;;;1.30;80.31
84809;BME280;75044;53.126;18.008;2024-01-15T03:38:52;98450.02;;;1.29;80.19
84809;BME280;75044;53.126;18.008;2024-01-15T03:39:55;98447.59;;;1.29;80.28
84809;BME280;75044;53.126;18.008;2024-01-15T03:40:59;98437.77;;;1.23;80.14
84809;BME280;75044;53.126;18.008;2024-01-15T03:42:02;98446.98;;;1.28;80.30
84809;BME280;75044;53.126;18.008;2024-01-15T03:43:06;98445.02;;;1.26;80.45
84809;BME280;75044;53.126;18.008;2024-01-15T03:44:09;98446.64;;;1.25;80.44
84809;BME280;75044;53.126;18.008;2024-01-15T03:45:12;98445.01;;;1.23;80.73
84809;BME280;75044;53.126;18.008;2024-01-15T03:46:15;98440.41;;;1.23;80.56
84809;BME280;75044;53.126;18.008;2024-01-15T03:47:18;98436.42;;;1.20;80.86
84809;BME280;75044;53.126;18.008;2024-01-15T03:48:21;98438.15;;;1.20;80.76
84809;BME280;75044;53.126;18.008;2024-01-15T03:49:25;98433.20;;;1.20;80.83
84809;BME280;75044;53.126;18.008;2024-01-15T03:50:28;98436.59;;;1.20;80.56
84809;BME280;75044;53.126;18.008;2024-01-15T03:51:31;98432.47;;;1.17;80.72
84809;BME280;75044;53.126;18.008;2024-01-15T03:52:34;98429.63;;;1.19;81.02
84809;BME280;75044;53.126;18.008;2024-01-15T03:53:39;98430.59;;;1.17;80.93
84809;BME280;75044;53.126;18.008;2024-01-15T03:54:43;98431.48;;;1.16;80.89
84809;BME280;75044;53.126;18.008;2024-01-15T03:55:46;98430.45;;;1.16;80.98
84809;BME280;75044;53.126;18.008;2024-01-15T03:56:51;98429.41;;;1.17;80.98
84809;BME280;75044;53.126;18.008;2024-01-15T03:57:55;98425.17;;;1.15;80.90
84809;BME280;75044;53.126;18.008;2024-01-15T03:58:59;98424.75;;;1.14;80.98
84809;BME280;75044;53.126;18.008;2024-01-15T04:00:03;98423.41;;;1.13;81.23
84809;BME280;75044;53.126;18.008;2024-01-15T04:01:09;98423.80;;;1.12;81.08
84809;BME280;75044;53.126;18.008;2024-01-15T04:02:13;98422.45;;;1.12;80.95
84809;BME280;75044;53.126;18.008;2024-01-15T04:03:17;98418.38;;;1.11;81.17
84809;BME280;75044;53.126;18.008;2024-01-15T04:04:20;98418.81;;;1.12;81.36
84809;BME280;75044;53.126;18.008;2024-01-15T04:05:23;98420.77;;;1.11;81.08
84809;BME280;75044;53.126;18.008;2024-01-15T04:06:26;98420.45;;;1.11;81.35
84809;BME280;75044;53.126;18.008;2024-01-15T04:07:29;98417.59;;;1.10;81.30
84809;BME280;75044;53.126;18.008;2024-01-15T04:08:32;98416.20;;;1.07;81.38
84809;BME280;75044;53.126;18.008;2024-01-15T04:09:35;98413.62;;;1.07;81.67
84809;BME280;75044;53.126;18.008;2024-01-15T04:10:38;98415.52;;;1.07;81.70
84809;BME280;75044;53.126;18.008;2024-01-15T04:11:41;98423.63;;;1.06;81.60
84809;BME280;75044;53.126;18.008;2024-01-15T04:12:45;98421.12;;;1.05;81.70
84809;BME280;75044;53.126;18.008;2024-01-15T04:13:50;98416.14;;;1.02;82.18
84809;BME280;75044;53.126;18.008;2024-01-15T04:14:53;98418.17;;;1.02;82.60
84809;BME280;75044;53.126;18.008;2024-01-15T04:15:57;98415.91;;;1.03;82.63
84809;BME280;75044;53.126;18.008;2024-01-15T04:17:00;98415.55;;;1.03;83.04
84809;BME280;75044;53.126;18.008;2024-01-15T04:18:03;98417.58;;;1.04;83.03
84809;BME280;75044;53.126;18.008;2024-01-15T04:19:06;98414.46;;;1.04;82.71
84809;BME280;75044;53.126;18.008;2024-01-15T04:20:10;98408.44;;;1.05;82.84
84809;BME280;75044;53.126;18.008;2024-01-15T04:21:13;98413.79;;;1.04;82.85
84809;BME280;75044;53.126;18.008;2024-01-15T04:22:17;98408.85;;;1.03;82.27
84809;BME280;75044;53.126;18.008;2024-01-15T04:23:20;98408.69;;;1.03;82.14
84809;BME280;75044;53.126;18.008;2024-01-15T04:24:23;98411.71;;;1.01;82.21
84809;BME280;75044;53.126;18.008;2024-01-15T04:25:27;98405.71;;;1.01;82.22
84809;BME280;75044;53.126;18.008;2024-01-15T04:26:30;98406.36;;;1.02;82.44
84809;BME280;75044;53.126;18.008;2024-01-15T04:27:33;98409.35;;;1.04;82.15
84809;BME280;75044;53.126;18.008;2024-01-15T04:28:36;98414.19;;;1.03;82.07
84809;BME280;75044;53.126;18.008;2024-01-15T04:29:39;98412.35;;;1.05;82.32
84809;BME280;75044;53.126;18.008;2024-01-15T04:30:42;98404.73;;;1.06;82.38
84809;BME280;75044;53.126;18.008;2024-01-15T04:31:45;98399.83;;;1.08;82.16
84809;BME280;75044;53.126;18.008;2024-01-15T04:32:49;98401.58;;;1.10;82.03
84809;BME280;75044;53.126;18.008;2024-01-15T04:33:52;98396.52;;;1.09;80.36
84809;BME280;75044;53.126;18.008;2024-01-15T04:34:55;98388.36;;;1.10;80.26
84809;BME280;75044;53.126;18.008;2024-01-15T04:36:02;98385.80;;;1.13;80.36
84809;BME280;75044;53.126;18.008;2024-01-15T04:37:06;98388.31;;;1.14;80.16
84809;BME280;75044;53.126;18.008;2024-01-15T04:38:09;98388.98;;;1.14;79.88
84809;BME280;75044;53.126;18.008;2024-01-15T04:39:12;98386.23;;;1.14;79.83
84809;BME280;75044;53.126;18.008;2024-01-15T04:40:15;98384.64;;;1.15;80.02
84809;BME280;75044;53.126;18.008;2024-01-15T04:41:18;98382.36;;;1.16;80.04
84809;BME280;75044;53.126;18.008;2024-01-15T04:42:22;98387.81;;;1.17;80.09
84809;BME280;75044;53.126;18.008;2024-01-15T04:43:26;98383.96;;;1.18;79.57
84809;BME280;75044;53.126;18.008;2024-01-15T04:44:29;98384.77;;;1.19;79.65
84809;BME280;75044;53.126;18.008;2024-01-15T04:45:32;98383.70;;;1.19;79.38
84809;BME280;75044;53.126;18.008;2024-01-15T04:46:35;98382.20;;;1.19;79.44
84809;BME280;75044;53.126;18.008;2024-01-15T04:47:38;98384.87;;;1.20;79.63
84809;BME280;75044;53.126;18.008;2024-01-15T04:48:42;98379.95;;;1.19;79.68
84809;BME280;75044;53.126;18.008;2024-01-15T04:49:45;98381.45;;;1.20;79.80
84809;BME280;75044;53.126;18.008;2024-01-15T04:50:48;98378.59;;;1.19;79.53
84809;BME280;75044;53.126;18.008;2024-01-15T04:51:51;98383.39;;;1.16;79.79
84809;BME280;75044;53.126;18.008;2024-01-15T04:52:54;98385.83;;;1.18;80.17
84809;BME280;75044;53.126;18.008;2024-01-15T04:53:58;98381.02;;;1.18;80.08
84809;BME280;75044;53.126;18.008;2024-01-15T04:55:01;98380.17;;;1.18;80.15
84809;BME280;75044;53.126;18.008;2024-01-15T04:56:04;98381.84;;;1.16;80.22
84809;BME280;75044;53.126;18.008;2024-01-15T04:57:07;98381.36;;;1.15;80.24
84809;BME280;75044;53.126;18.008;2024-01-15T04:58:10;98380.38;;;1.15;80.39
84809;BME280;75044;53.126;18.008;2024-01-15T04:59:13;98380.15;;;1.15;80.42
84809;BME280;75044;53.126;18.008;2024-01-15T05:00:17;98385.10;;;1.16;80.14
84809;BME280;75044;53.126;18.008;2024-01-15T05:01:21;98386.90;;;1.15;80.12
84809;BME280;75044;53.126;18.008;2024-01-15T05:02:24;98387.13;;;1.17;79.81
84809;BME280;75044;53.126;18.008;2024-01-15T05:03:27;98387.49;;;1.16;79.47
84809;BME280;75044;53.126;18.008;2024-01-15T05:04:30;98386.81;;;1.16;79.67
84809;BME280;75044;53.126;18.008;2024-01-15T05:05:33;98386.47;;;1.16;79.62
84809;BME280;75044;53.126;18.008;2024-01-15T05:06:37;98383.55;;;1.16;79.46
84809;BME280;75044;53.126;18.008;2024-01-15T05:07:40;98382.70;;;1.16;79.37
84809;BME280;75044;53.126;18.008;2024-01-15T05:08:43;98377.77;;;1.15;78.95
84809;BME280;75044;53.126;18.008;2024-01-15T05:09:46;98381.34;;;1.16;78.91
84809;BME280;75044;53.126;18.008;2024-01-15T05:10:49;98385.63;;;1.16;78.80
84809;BME280;75044;53.126;18.008;2024-01-15T05:11:53;98381.66;;;1.16;79.20
84809;BME280;75044;53.126;18.008;2024-01-15T05:12:56;98384.73;;;1.16;79.09
84809;BME280;75044;53.126;18.008;2024-01-15T05:13:59;98379.27;;;1.16;79.18
84809;BME280;75044;53.126;18.008;2024-01-15T05:15:03;98380.30;;;1.16;79.09
84809;BME280;75044;53.126;18.008;2024-01-15T05:16:06;98382.39;;;1.15;79.00
84809;BME280;75044;53.126;18.008;2024-01-15T05:17:09;98384.81;;;1.15;78.23
84809;BME280;75044;53.126;18.008;2024-01-15T05:18:12;98383.10;;;1.15;78.36
84809;BME280;75044;53.126;18.008;2024-01-15T05:19:15;98383.46;;;1.15;78.50
84809;BME280;75044;53.126;18.008;2024-01-15T05:20:19;98384.89;;;1.14;78.14
84809;BME280;75044;53.126;18.008;2024-01-15T05:21:22;98388.11;;;1.11;77.67
84809;BME280;75044;53.126;18.008;2024-01-15T05:22:25;98384.78;;;1.10;77.83
84809;BME280;75044;53.126;18.008;2024-01-15T05:23:28;98382.58;;;1.09;77.86
84809;BME280;75044;53.126;18.008;2024-01-15T05:24:32;98380.09;;;1.07;77.72
84809;BME280;75044;53.126;18.008;2024-01-15T05:25:35;98385.48;;;1.06;77.69
84809;BME280;75044;53.126;18.008;2024-01-15T05:26:38;98382.66;;;1.04;77.97
84809;BME280;75044;53.126;18.008;2024-01-15T05:27:42;98383.61;;;1.03;77.86
84809;BME280;75044;53.126;18.008;2024-01-15T05:28:45;98391.00;;;1.03;78.07
84809;BME280;75044;53.126;18.008;2024-01-15T05:29:50;98381.23;;;1.02;77.92
84809;BME280;75044;53.126;18.008;2024-01-15T05:30:53;98387.80;;;1.02;77.80
84809;BME280;75044;53.126;18.008;2024-01-15T05:31:58;98380.81;;;1.01;77.66
84809;BME280;75044;53.126;18.008;2024-01-15T05:33:01;98381.63;;;1.04;77.84
84809;BME280;75044;53.126;18.008;2024-01-15T05:34:05;98381.20;;;1.06;77.89
84809;BME280;75044;53.126;18.008;2024-01-15T05:35:08;98384.63;;;1.06;77.84
84809;BME280;75044;53.126;18.008;2024-01-15T05:36:11;98384.59;;;1.07;77.61